sensor_id;sensor_type;location;lat;lon;timestamp;temperature;humidity
23685;DHT22;12020;51.384;6.908;2023-07-22T00:02:19;15.00;99.90
23685;DHT22;12020;51.384;6.908;2023-07-22T00:04:44;15.00;99.90
23685;DHT22;12020;51.384;6.908;2023-07-22T00:07:11;15.00;99.90
23685;DHT22;12020;51.384;6.908;2023-07-22T00:09:37;15.00;99.90
23685;DHT22;12020;51.384;6.908;2023-07-22T00:12:04;15.00;99.90
23685;DHT22;12020;51.384;6.908;2023-07-22T00:14:30;15.00;99.90
23685;DHT22;12020;51.384;6.908;2023-07-22T00:16:56;15.00;99.90
23685;DHT22;12020;51.384;6.908;2023-07-22T00:19:22;15.00;99.90
23685;DHT22;12020;51.384;6.908;2023-07-22T00:21:49;15.00;99.90
23685;DHT22;12020;51.384;6.908;2023-07-22T00:24:14;15.00;99.90
23685;DHT22;12020;51.384;6.908;2023-07-22T00:26:41;15.00;99.90
23685;DHT22;12020;51.384;6.908;2023-07-22T00:29:08;15.00;99.90
23685;DHT22;12020;51.384;6.908;2023-07-22T00:31:33;15.10;99.90
23685;DHT22;12020;51.384;6.908;2023-07-22T00:33:59;15.10;99.90
23685;DHT22;12020;51.384;6.908;2023-07-22T00:36:25;15.10;99.90
23685;DHT22;12020;51.384;6.908;2023-07-22T00:38:51;15.10;99.90
23685;DHT22;12020;51.384;6.908;2023-07-22T00:41:18;15.10;99.90
23685;DHT22;12020;51.384;6.908;2023-07-22T00:43:44;15.10;99.90
23685;DHT22;12020;51.384;6.908;2023-07-22T00:46:09;15.00;99.90
23685;DHT22;12020;51.384;6.908;2023-07-22T00:48:35;15.10;99.90
23685;DHT22;12020;51.384;6.908;2023-07-22T00:51:01;15.10;99.90
23685;DHT22;12020;51.384;6.908;2023-07-22T00:53:28;15.10;99.90
23685;DHT22;12020;51.384;6.908;2023-07-22T00:55:54;15.00;99.90
23685;DHT22;12020;51.384;6.908;2023-07-22T00:58:21;15.10;99.90
23685;DHT22;12020;51.384;6.908;2023-07-22T01:00:46;15.00;99.90
23685;DHT22;12020;51.384;6.908;2023-07-22T01:03:12;15.00;99.90
23685;DHT22;12020;51.384;6.908;2023-07-22T01:05:39;15.10;99.90
23685;DHT22;12020;51.384;6.908;2023-07-22T01:08:05;15.10;99.90
23685;DHT22;12020;51.384;6.908;2023-07-22T01:10:31;15.10;99.90
23685;DHT22;12020;51.384;6.908;2023-07-22T01:12:57;15.10;99.90
23685;DHT22;12020;51.384;6.908;2023-07-22T01:15:24;15.10;99.90
23685;DHT22;12020;51.384;6.908;2023-07-22T01:17:51;15.10;99.90
23685;DHT22;12020;51.384;6.908;2023-07-22T01:20:17;15.10;99.90
23685;DHT22;12020;51.384;6.908;2023-07-22T01:22:53;15.10;99.90
23685;DHT22;12020;51.384;6.908;2023-07-22T01:25:22;15.10;99.90
23685;DHT22;12020;51.384;6.908;2023-07-22T01:27:51;15.10;99.90
23685;DHT22;12020;51.384;6.908;2023-07-22T01:30:17;15.10;99.90
23685;DHT22;12020;51.384;6.908;2023-07-22T01:32:45;15.10;99.90
23685;DHT22;12020;51.384;6.908;2023-07-22T01:35:11;15.10;99.90
23685;DHT22;12020;51.384;6.908;2023-07-22T01:37:37;15.10;99.90
23685;DHT22;12020;51.384;6.908;2023-07-22T01:40:03;15.20;99.90
23685;DHT22;12020;51.384;6.908;2023-07-22T01:42:41;15.20;99.90
23685;DHT22;12020;51.384;6.908;2023-07-22T01:45:08;15.20;99.90
23685;DHT22;12020;51.384;6.908;2023-07-22T01:47:35;15.20;99.90
23685;DHT22;12020;51.384;6.908;2023-07-22T01:50:02;15.20;99.90
23685;DHT22;12020;51.384;6.908;2023-07-22T01:52:28;15.20;99.90
23685;DHT22;12020;51.384;6.908;2023-07-22T01:54:53;15.20;99.90
23685;DHT22;12020;51.384;6.908;2023-07-22T01:57:19;15.20;99.90
23685;DHT22;12020;51.384;6.908;2023-07-22T01:59:44;15.20;99.90
23685;DHT22;12020;51.384;6.908;2023-07-22T02:02:10;15.30;99.90
23685;DHT22;12020;51.384;6.908;2023-07-22T02:04:36;15.30;99.90
23685;DHT22;12020;51.384;6.908;2023-07-22T02:07:01;15.30;99.90
23685;DHT22;12020;51.384;6.908;2023-07-22T02:09:27;15.30;99.90
23685;DHT22;12020;51.384;6.908;2023-07-22T02:11:52;15.40;99.90
23685;DHT22;12020;51.384;6.908;2023-07-22T02:14:19;15.40;99.90
23685;DHT22;12020;51.384;6.908;2023-07-22T02:16:45;15.40;99.90
23685;DHT22;12020;51.384;6.908;2023-07-22T02:19:10;15.40;99.90
23685;DHT22;12020;51.384;6.908;2023-07-22T02:21:36;15.40;99.90
23685;DHT22;12020;51.384;6.908;2023-07-22T02:24:01;15.50;99.90
23685;DHT22;12020;51.384;6.908;2023-07-22T02:26:27;15.50;99.90
23685;DHT22;12020;51.384;6.908;2023-07-22T02:28:53;15.50;99.90
23685;DHT22;12020;51.384;6.908;2023-07-22T02:31:20;15.50;99.90
23685;DHT22;12020;51.384;6.908;2023-07-22T02:33:48;15.50;99.90
23685;DHT22;12020;51.384;6.908;2023-07-22T02:36:13;15.50;99.90
23685;DHT22;12020;51.384;6.908;2023-07-22T02:38:39;15.50;99.90
23685;DHT22;12020;51.384;6.908;2023-07-22T02:41:05;15.50;99.90
23685;DHT22;12020;51.384;6.908;2023-07-22T02:43:35;15.50;99.90
23685;DHT22;12020;51.384;6.908;2023-07-22T02:46:03;15.50;99.90
23685;DHT22;12020;51.384;6.908;2023-07-22T02:48:29;15.50;99.90
23685;DHT22;12020;51.384;6.908;2023-07-22T02:51:01;15.40;99.90
23685;DHT22;12020;51.384;6.908;2023-07-22T02:53:26;15.40;99.90
23685;DHT22;12020;51.384;6.908;2023-07-22T02:55:52;15.40;99.90
23685;DHT22;12020;51.384;6.908;2023-07-22T02:58:18;15.40;99.90
23685;DHT22;12020;51.384;6.908;2023-07-22T03:00:43;15.40;99.90
23685;DHT22;12020;51.384;6.908;2023-07-22T03:03:09;15.40;99.90
23685;DHT22;12020;51.384;6.908;2023-07-22T03:05:34;15.40;99.90
23685;DHT22;12020;51.384;6.908;2023-07-22T03:08:00;15.40;99.90
23685;DHT22;12020;51.384;6.908;2023-07-22T03:10:26;15.40;99.90
23685;DHT22;12020;51.384;6.908;2023-07-22T03:12:52;15.40;99.90
23685;DHT22;12020;51.384;6.908;2023-07-22T03:15:22;15.40;99.90
23685;DHT22;12020;51.384;6.908;2023-07-22T03:17:47;15.40;99.90
23685;DHT22;12020;51.384;6.908;2023-07-22T03:20:13;15.40;99.90
23685;DHT22;12020;51.384;6.908;2023-07-22T03:22:43;15.40;99.90
23685;DHT22;12020;51.384;6.908;2023-07-22T03:25:10;15.40;99.90
23685;DHT22;12020;51.384;6.908;2023-07-22T03:27:36;15.40;99.90
23685;DHT22;12020;51.384;6.908;2023-07-22T03:30:04;15.40;99.90
23685;DHT22;12020;51.384;6.908;2023-07-22T03:32:32;15.40;99.90
23685;DHT22;12020;51.384;6.908;2023-07-22T03:34:57;15.40;99.90
23685;DHT22;12020;51.384;6.908;2023-07-22T03:37:23;15.40;99.90
23685;DHT22;12020;51.384;6.908;2023-07-22T03:39:48;15.40;99.90
23685;DHT22;12020;51.384;6.908;2023-07-22T03:42:14;15.50;99.90
23685;DHT22;12020;51.384;6.908;2023-07-22T03:44:40;15.50;99.90
23685;DHT22;12020;51.384;6.908;2023-07-22T03:47:06;15.50;99.90
23685;DHT22;12020;51.384;6.908;2023-07-22T03:49:34;15.50;99.90
23685;DHT22;12020;51.384;6.908;2023-07-22T03:52:00;15.50;99.90
23685;DHT22;12020;51.384;6.908;2023-07-22T03:54:26;15.50;99.90
23685;DHT22;12020;51.384;6.908;2023-07-22T03:56:51;15.50;99.90
23685;DHT22;12020;51.384;6.908;2023-07-22T03:59:17;15.50;99.90
23685;DHT22;12020;51.384;6.908;2023-07-22T04:01:42;15.40;99.90
23685;DHT22;12020;51.384;6.908;2023-07-22T04:04:08;15.40;99.90
23685;DHT22;12020;51.384;6.908;2023-07-22T04:06:34;15.50;99.90
23685;DHT22;12020;51.384;6.908;2023-07-22T04:09:00;15.50;99.90
23685;DHT22;12020;51.384;6.908;2023-07-22T04:11:26;15.50;99.90
23685;DHT22;12020;51.384;6.908;2023-07-22T04:13:52;15.50;99.90
23685;DHT22;12020;51.384;6.908;2023-07-22T04:16:18;15.50;99.90
23685;DHT22;12020;51.384;6.908;2023-07-22T04:18:44;15.50;99.90
23685;DHT22;12020;51.384;6.908;2023-07-22T04:21:11;15.50;99.90
23685;DHT22;12020;51.384;6.908;2023-07-22T04:23:36;15.50;99.90
23685;DHT22;12020;51.384;6.908;2023-07-22T04:26:03;15.50;99.90
23685;DHT22;12020;51.384;6.908;2023-07-22T04:28:30;15.50;99.90
23685;DHT22;12020;51.384;6.908;2023-07-22T04:30:58;15.50;99.90
23685;DHT22;12020;51.384;6.908;2023-07-22T04:33:26;15.50;99.90
23685;DHT22;12020;51.384;6.908;2023-07-22T04:35:55;15.50;99.90
23685;DHT22;12020;51.384;6.908;2023-07-22T04:38:22;15.50;99.90
23685;DHT22;12020;51.384;6.908;2023-07-22T04:40:47;15.60;99.90
23685;DHT22;12020;51.384;6.908;2023-07-22T04:43:13;15.60;99.90
23685;DHT22;12020;51.384;6.908;2023-07-22T04:45:38;15.60;99.90
23685;DHT22;12020;51.384;6.908;2023-07-22T04:48:07;15.60;99.90
23685;DHT22;12020;51.384;6.908;2023-07-22T04:50:33;15.60;99.90
23685;DHT22;12020;51.384;6.908;2023-07-22T04:52:59;15.60;99.90
23685;DHT22;12020;51.384;6.908;2023-07-22T04:55:26;15.70;99.90
23685;DHT22;12020;51.384;6.908;2023-07-22T04:57:55;15.60;99.90
23685;DHT22;12020;51.384;6.908;2023-07-22T05:00:20;15.70;99.90
23685;DHT22;12020;51.384;6.908;2023-07-22T05:02:47;15.70;99.90
23685;DHT22;12020;51.384;6.908;2023-07-22T05:05:13;15.70;99.90
23685;DHT22;12020;51.384;6.908;2023-07-22T05:07:39;15.80;99.90
23685;DHT22;12020;51.384;6.908;2023-07-22T05:10:06;15.70;99.90
23685;DHT22;12020;51.384;6.908;2023-07-22T05:12:32;15.80;99.90
23685;DHT22;12020;51.384;6.908;2023-07-22T05:14:58;15.80;99.90
23685;DHT22;12020;51.384;6.908;2023-07-22T05:17:24;15.80;99.90
23685;DHT22;12020;51.384;6.908;2023-07-22T05:19:51;15.80;99.90
23685;DHT22;12020;51.384;6.908;2023-07-22T05:22:16;15.80;99.90
23685;DHT22;12020;51.384;6.908;2023-07-22T05:24:42;15.80;99.90
23685;DHT22;12020;51.384;6.908;2023-07-22T05:27:08;15.90;99.90
23685;DHT22;12020;51.384;6.908;2023-07-22T05:29:33;15.90;99.90
23685;DHT22;12020;51.384;6.908;2023-07-22T05:31:59;15.80;99.90
23685;DHT22;12020;51.384;6.908;2023-07-22T05:34:25;15.80;99.90
23685;DHT22;12020;51.384;6.908;2023-07-22T05:36:50;15.80;99.90
23685;DHT22;12020;51.384;6.908;2023-07-22T05:39:16;15.90;99.90
23685;DHT22;12020;51.384;6.908;2023-07-22T05:41:43;15.80;99.90
23685;DHT22;12020;51.384;6.908;2023-07-22T05:44:09;15.90;99.90
23685;DHT22;12020;51.384;6.908;2023-07-22T05:46:35;15.90;99.90
23685;DHT22;12020;51.384;6.908;2023-07-22T05:49:00;15.90;99.90
23685;DHT22;12020;51.384;6.908;2023-07-22T05:51:26;15.90;99.90
23685;DHT22;12020;51.384;6.908;2023-07-22T05:53:52;15.90;99.90
23685;DHT22;12020;51.384;6.908;2023-07-22T05:56:17;16.00;99.90
23685;DHT22;12020;51.384;6.908;2023-07-22T05:58:43;16.10;99.90
23685;DHT22;12020;51.384;6.908;2023-07-22T06:01:09;16.10;99.90
23685;DHT22;12020;51.384;6.908;2023-07-22T06:03:35;16.20;99.90
23685;DHT22;12020;51.384;6.908;2023-07-22T06:06:01;16.20;99.90
23685;DHT22;12020;51.384;6.908;2023-07-22T06:08:27;16.20;99.90
23685;DHT22;12020;51.384;6.908;2023-07-22T06:10:53;16.20;99.90
23685;DHT22;12020;51.384;6.908;2023-07-22T06:13:19;16.30;99.90
23685;DHT22;12020;51.384;6.908;2023-07-22T06:15:44;16.30;99.90
23685;DHT22;12020;51.384;6.908;2023-07-22T06:18:11;16.40;99.90
23685;DHT22;12020;51.384;6.908;2023-07-22T06:20:36;16.40;99.90
23685;DHT22;12020;51.384;6.908;2023-07-22T06:23:03;16.40;99.90
23685;DHT22;12020;51.384;6.908;2023-07-22T06:25:29;16.40;99.90
23685;DHT22;12020;51.384;6.908;2023-07-22T06:27:54;16.50;99.90
23685;DHT22;12020;51.384;6.908;2023-07-22T06:30:20;16.50;99.90
23685;DHT22;12020;51.384;6.908;2023-07-22T06:32:46;16.60;99.90
23685;DHT22;12020;51.384;6.908;2023-07-22T06:35:12;16.60;99.90
23685;DHT22;12020;51.384;6.908;2023-07-22T06:37:37;16.70;99.90
23685;DHT22;12020;51.384;6.908;2023-07-22T06:40:04;16.70;99.90
23685;DHT22;12020;51.384;6.908;2023-07-22T06:42:30;16.80;99.90
23685;DHT22;12020;51.384;6.908;2023-07-22T06:44:55;16.90;99.90
23685;DHT22;12020;51.384;6.908;2023-07-22T06:47:21;17.00;99.90
23685;DHT22;12020;51.384;6.908;2023-07-22T06:49:47;17.00;99.90
23685;DHT22;12020;51.384;6.908;2023-07-22T06:52:13;17.10;99.90
23685;DHT22;12020;51.384;6.908;2023-07-22T06:54:39;17.20;99.90
23685;DHT22;12020;51.384;6.908;2023-07-22T06:57:04;17.30;99.90
23685;DHT22;12020;51.384;6.908;2023-07-22T06:59:31;17.40;99.90
23685;DHT22;12020;51.384;6.908;2023-07-22T07:01:57;17.50;99.90
23685;DHT22;12020;51.384;6.908;2023-07-22T07:04:23;17.50;99.90
23685;DHT22;12020;51.384;6.908;2023-07-22T07:06:50;17.60;99.90
23685;DHT22;12020;51.384;6.908;2023-07-22T07:09:15;17.60;99.90
23685;DHT22;12020;51.384;6.908;2023-07-22T07:11:42;17.60;99.90
23685;DHT22;12020;51.384;6.908;2023-07-22T07:14:08;17.70;99.90
23685;DHT22;12020;51.384;6.908;2023-07-22T07:16:33;17.70;99.90
23685;DHT22;12020;51.384;6.908;2023-07-22T07:19:00;17.80;99.90
23685;DHT22;12020;51.384;6.908;2023-07-22T07:21:27;17.80;99.90
23685;DHT22;12020;51.384;6.908;2023-07-22T07:23:53;17.80;99.90
23685;DHT22;12020;51.384;6.908;2023-07-22T07:26:20;17.90;99.90
23685;DHT22;12020;51.384;6.908;2023-07-22T07:28:47;17.90;99.90
23685;DHT22;12020;51.384;6.908;2023-07-22T07:31:13;17.90;99.90
23685;DHT22;12020;51.384;6.908;2023-07-22T07:33:39;18.00;99.90
23685;DHT22;12020;51.384;6.908;2023-07-22T07:36:05;18.10;99.90
23685;DHT22;12020;51.384;6.908;2023-07-22T07:38:30;18.20;99.90
23685;DHT22;12020;51.384;6.908;2023-07-22T07:40:58;18.30;99.90
23685;DHT22;12020;51.384;6.908;2023-07-22T07:43:24;18.40;99.90
23685;DHT22;12020;51.384;6.908;2023-07-22T07:45:50;18.50;99.90
23685;DHT22;12020;51.384;6.908;2023-07-22T07:48:16;18.60;99.90
23685;DHT22;12020;51.384;6.908;2023-07-22T07:50:42;18.70;99.90
23685;DHT22;12020;51.384;6.908;2023-07-22T07:53:08;18.80;99.90
23685;DHT22;12020;51.384;6.908;2023-07-22T07:55:34;18.90;99.90
23685;DHT22;12020;51.384;6.908;2023-07-22T07:58:17;19.00;99.90
23685;DHT22;12020;51.384;6.908;2023-07-22T08:00:43;19.10;99.90
23685;DHT22;12020;51.384;6.908;2023-07-22T08:03:09;19.20;99.90
23685;DHT22;12020;51.384;6.908;2023-07-22T08:05:34;19.30;99.90
23685;DHT22;12020;51.384;6.908;2023-07-22T08:08:00;19.40;99.90
23685;DHT22;12020;51.384;6.908;2023-07-22T08:10:25;19.50;99.90
23685;DHT22;12020;51.384;6.908;2023-07-22T08:12:51;19.70;99.90
23685;DHT22;12020;51.384;6.908;2023-07-22T08:15:17;19.90;99.90
23685;DHT22;12020;51.384;6.908;2023-07-22T08:17:42;20.10;99.90
23685;DHT22;12020;51.384;6.908;2023-07-22T08:20:08;20.40;99.90
23685;DHT22;12020;51.384;6.908;2023-07-22T08:22:35;20.50;99.90
23685;DHT22;12020;51.384;6.908;2023-07-22T08:25:01;20.70;99.90
23685;DHT22;12020;51.384;6.908;2023-07-22T08:27:27;20.80;99.90
23685;DHT22;12020;51.384;6.908;2023-07-22T08:29:52;20.90;99.90
23685;DHT22;12020;51.384;6.908;2023-07-22T08:32:18;21.00;99.90
23685;DHT22;12020;51.384;6.908;2023-07-22T08:34:44;21.10;99.90
23685;DHT22;12020;51.384;6.908;2023-07-22T08:37:09;21.20;99.90
23685;DHT22;12020;51.384;6.908;2023-07-22T08:39:35;21.30;99.90
23685;DHT22;12020;51.384;6.908;2023-07-22T08:42:04;21.40;99.90
23685;DHT22;12020;51.384;6.908;2023-07-22T08:44:33;21.50;99.90
23685;DHT22;12020;51.384;6.908;2023-07-22T08:47:02;21.70;99.90
23685;DHT22;12020;51.384;6.908;2023-07-22T08:49:31;21.90;99.90
23685;DHT22;12020;51.384;6.908;2023-07-22T08:51:59;22.10;99.90
23685;DHT22;12020;51.384;6.908;2023-07-22T08:54:25;22.30;99.90
23685;DHT22;12020;51.384;6.908;2023-07-22T08:56:51;22.30;99.90
23685;DHT22;12020;51.384;6.908;2023-07-22T08:59:18;22.30;99.90
23685;DHT22;12020;51.384;6.908;2023-07-22T09:01:45;22.20;99.90
23685;DHT22;12020;51.384;6.908;2023-07-22T09:04:11;22.20;99.90
23685;DHT22;12020;51.384;6.908;2023-07-22T09:06:37;22.20;99.90
23685;DHT22;12020;51.384;6.908;2023-07-22T09:09:03;22.30;99.90
23685;DHT22;12020;51.384;6.908;2023-07-22T09:11:34;22.50;99.90
23685;DHT22;12020;51.384;6.908;2023-07-22T09:14:02;22.70;99.90
23685;DHT22;12020;51.384;6.908;2023-07-22T09:16:30;22.70;99.90
23685;DHT22;12020;51.384;6.908;2023-07-22T09:18:57;22.80;99.90
23685;DHT22;12020;51.384;6.908;2023-07-22T09:21:23;22.70;99.90
23685;DHT22;12020;51.384;6.908;2023-07-22T09:23:49;22.70;99.90
23685;DHT22;12020;51.384;6.908;2023-07-22T09:26:16;22.70;99.90
23685;DHT22;12020;51.384;6.908;2023-07-22T09:28:49;22.60;99.90
23685;DHT22;12020;51.384;6.908;2023-07-22T09:31:15;22.60;99.90
23685;DHT22;12020;51.384;6.908;2023-07-22T09:33:40;22.50;99.90
23685;DHT22;12020;51.384;6.908;2023-07-22T09:36:06;22.50;99.90
23685;DHT22;12020;51.384;6.908;2023-07-22T09:38:32;22.60;99.90
23685;DHT22;12020;51.384;6.908;2023-07-22T09:40:57;22.80;99.90
23685;DHT22;12020;51.384;6.908;2023-07-22T09:43:24;22.90;99.90
23685;DHT22;12020;51.384;6.908;2023-07-22T09:45:50;23.10;99.90
23685;DHT22;12020;51.384;6.908;2023-07-22T09:48:17;23.20;99.90
23685;DHT22;12020;51.384;6.908;2023-07-22T09:50:43;23.30;99.90
23685;DHT22;12020;51.384;6.908;2023-07-22T09:53:15;23.40;99.90
23685;DHT22;12020;51.384;6.908;2023-07-22T09:55:41;23.30;99.90
23685;DHT22;12020;51.384;6.908;2023-07-22T09:58:06;23.20;99.90
23685;DHT22;12020;51.384;6.908;2023-07-22T10:00:35;23.10;99.90
23685;DHT22;12020;51.384;6.908;2023-07-22T10:03:02;23.00;99.90
23685;DHT22;12020;51.384;6.908;2023-07-22T10:05:34;23.10;99.90
23685;DHT22;12020;51.384;6.908;2023-07-22T10:08:00;23.30;99.90
23685;DHT22;12020;51.384;6.908;2023-07-22T10:12:58;23.60;99.90
23685;DHT22;12020;51.384;6.908;2023-07-22T10:15:32;23.70;99.90
23685;DHT22;12020;51.384;6.908;2023-07-22T10:18:00;23.90;99.90
23685;DHT22;12020;51.384;6.908;2023-07-22T10:20:26;23.90;99.90
23685;DHT22;12020;51.384;6.908;2023-07-22T10:22:51;24.00;99.90
23685;DHT22;12020;51.384;6.908;2023-07-22T10:25:25;24.20;99.90
23685;DHT22;12020;51.384;6.908;2023-07-22T10:28:11;24.30;99.90
23685;DHT22;12020;51.384;6.908;2023-07-22T10:30:51;24.30;99.90
23685;DHT22;12020;51.384;6.908;2023-07-22T10:33:17;24.40;99.90
23685;DHT22;12020;51.384;6.908;2023-07-22T10:36:16;24.50;99.90
23685;DHT22;12020;51.384;6.908;2023-07-22T10:38:55;24.50;99.90
23685;DHT22;12020;51.384;6.908;2023-07-22T10:41:21;24.40;99.90
23685;DHT22;12020;51.384;6.908;2023-07-22T10:43:58;24.40;99.90
23685;DHT22;12020;51.384;6.908;2023-07-22T10:46:38;24.40;99.90
23685;DHT22;12020;51.384;6.908;2023-07-22T10:49:11;24.40;99.90
23685;DHT22;12020;51.384;6.908;2023-07-22T10:51:37;24.40;99.90
23685;DHT22;12020;51.384;6.908;2023-07-22T10:54:11;24.40;99.90
23685;DHT22;12020;51.384;6.908;2023-07-22T10:56:36;24.50;99.90
23685;DHT22;12020;51.384;6.908;2023-07-22T10:59:02;24.50;99.90
23685;DHT22;12020;51.384;6.908;2023-07-22T11:01:33;24.60;99.90
23685;DHT22;12020;51.384;6.908;2023-07-22T11:04:23;24.70;99.90
23685;DHT22;12020;51.384;6.908;2023-07-22T11:07:03;24.80;99.90
23685;DHT22;12020;51.384;6.908;2023-07-22T11:09:38;24.80;99.90
23685;DHT22;12020;51.384;6.908;2023-07-22T11:12:17;24.80;99.90
23685;DHT22;12020;51.384;6.908;2023-07-22T11:14:51;24.80;99.90
23685;DHT22;12020;51.384;6.908;2023-07-22T11:17:32;24.80;99.90
23685;DHT22;12020;51.384;6.908;2023-07-22T11:20:04;24.70;99.90
23685;DHT22;12020;51.384;6.908;2023-07-22T11:22:32;24.80;99.90
23685;DHT22;12020;51.384;6.908;2023-07-22T11:25:02;24.80;99.80
23685;DHT22;12020;51.384;6.908;2023-07-22T11:27:36;24.80;99.90
23685;DHT22;12020;51.384;6.908;2023-07-22T11:30:03;24.70;99.90
23685;DHT22;12020;51.384;6.908;2023-07-22T11:32:29;24.70;99.90
23685;DHT22;12020;51.384;6.908;2023-07-22T11:34:55;24.70;99.90
23685;DHT22;12020;51.384;6.908;2023-07-22T11:37:22;24.70;99.60
23685;DHT22;12020;51.384;6.908;2023-07-22T11:40:01;24.60;98.40
23685;DHT22;12020;51.384;6.908;2023-07-22T11:42:33;24.40;99.90
23685;DHT22;12020;51.384;6.908;2023-07-22T11:44:59;24.40;99.90
23685;DHT22;12020;51.384;6.908;2023-07-22T11:47:31;24.40;99.90
23685;DHT22;12020;51.384;6.908;2023-07-22T11:49:57;24.60;99.90
23685;DHT22;12020;51.384;6.908;2023-07-22T11:52:23;24.70;99.90
23685;DHT22;12020;51.384;6.908;2023-07-22T11:54:49;24.70;99.90
23685;DHT22;12020;51.384;6.908;2023-07-22T11:57:16;24.90;99.90
23685;DHT22;12020;51.384;6.908;2023-07-22T12:02:25;25.00;99.50
23685;DHT22;12020;51.384;6.908;2023-07-22T12:04:59;25.10;99.00
23685;DHT22;12020;51.384;6.908;2023-07-22T12:07:36;25.10;99.00
23685;DHT22;12020;51.384;6.908;2023-07-22T12:10:06;25.00;98.10
23685;DHT22;12020;51.384;6.908;2023-07-22T12:12:40;25.00;98.70
23685;DHT22;12020;51.384;6.908;2023-07-22T12:15:14;25.00;99.20
23685;DHT22;12020;51.384;6.908;2023-07-22T12:18:00;25.10;99.50
23685;DHT22;12020;51.384;6.908;2023-07-22T12:20:37;25.10;98.10
23685;DHT22;12020;51.384;6.908;2023-07-22T12:23:02;25.10;97.80
23685;DHT22;12020;51.384;6.908;2023-07-22T12:25:31;25.00;98.40
23685;DHT22;12020;51.384;6.908;2023-07-22T12:28:00;24.90;98.90
23685;DHT22;12020;51.384;6.908;2023-07-22T12:30:25;24.90;98.10
23685;DHT22;12020;51.384;6.908;2023-07-22T12:33:16;24.90;98.60
23685;DHT22;12020;51.384;6.908;2023-07-22T12:35:41;25.00;98.20
23685;DHT22;12020;51.384;6.908;2023-07-22T12:38:07;25.00;97.60
23685;DHT22;12020;51.384;6.908;2023-07-22T12:40:33;25.00;96.90
23685;DHT22;12020;51.384;6.908;2023-07-22T12:42:58;24.90;98.10
23685;DHT22;12020;51.384;6.908;2023-07-22T12:45:34;24.90;99.10
23685;DHT22;12020;51.384;6.908;2023-07-22T12:48:01;25.00;99.50
23685;DHT22;12020;51.384;6.908;2023-07-22T12:50:29;25.00;98.00
23685;DHT22;12020;51.384;6.908;2023-07-22T12:53:12;25.00;97.10
23685;DHT22;12020;51.384;6.908;2023-07-22T12:55:45;25.00;97.80
23685;DHT22;12020;51.384;6.908;2023-07-22T12:58:33;25.10;98.40
23685;DHT22;12020;51.384;6.908;2023-07-22T13:00:59;25.10;97.90
23685;DHT22;12020;51.384;6.908;2023-07-22T13:03:24;25.10;98.40
23685;DHT22;12020;51.384;6.908;2023-07-22T13:05:54;25.10;98.30
23685;DHT22;12020;51.384;6.908;2023-07-22T13:08:21;25.00;97.70
23685;DHT22;12020;51.384;6.908;2023-07-22T13:10:52;25.00;98.00
23685;DHT22;12020;51.384;6.908;2023-07-22T13:13:19;24.90;97.90
23685;DHT22;12020;51.384;6.908;2023-07-22T13:15:52;24.90;97.40
23685;DHT22;12020;51.384;6.908;2023-07-22T13:18:20;24.80;96.20
23685;DHT22;12020;51.384;6.908;2023-07-22T13:20:48;24.80;96.60
23685;DHT22;12020;51.384;6.908;2023-07-22T13:23:25;24.70;97.40
23685;DHT22;12020;51.384;6.908;2023-07-22T13:25:59;24.70;97.70
23685;DHT22;12020;51.384;6.908;2023-07-22T13:28:25;24.70;97.40
23685;DHT22;12020;51.384;6.908;2023-07-22T13:30:56;24.70;97.20
23685;DHT22;12020;51.384;6.908;2023-07-22T13:33:31;24.70;95.70
23685;DHT22;12020;51.384;6.908;2023-07-22T13:36:04;24.50;95.30
23685;DHT22;12020;51.384;6.908;2023-07-22T13:38:32;24.40;95.60
23685;DHT22;12020;51.384;6.908;2023-07-22T13:41:13;24.30;95.80
23685;DHT22;12020;51.384;6.908;2023-07-22T13:43:42;24.30;96.20
23685;DHT22;12020;51.384;6.908;2023-07-22T13:46:16;24.40;96.70
23685;DHT22;12020;51.384;6.908;2023-07-22T13:48:43;24.50;95.30
23685;DHT22;12020;51.384;6.908;2023-07-22T13:51:10;24.40;93.80
23685;DHT22;12020;51.384;6.908;2023-07-22T13:53:48;24.40;94.30
23685;DHT22;12020;51.384;6.908;2023-07-22T13:56:27;24.40;94.70
23685;DHT22;12020;51.384;6.908;2023-07-22T13:58:57;24.30;95.20
23685;DHT22;12020;51.384;6.908;2023-07-22T14:01:31;24.40;95.40
23685;DHT22;12020;51.384;6.908;2023-07-22T14:03:57;24.40;95.90
23685;DHT22;12020;51.384;6.908;2023-07-22T14:06:33;24.40;94.60
23685;DHT22;12020;51.384;6.908;2023-07-22T14:09:02;24.40;94.60
23685;DHT22;12020;51.384;6.908;2023-07-22T14:11:30;24.50;94.00
23685;DHT22;12020;51.384;6.908;2023-07-22T14:13:57;24.50;94.90
23685;DHT22;12020;51.384;6.908;2023-07-22T14:16:33;24.60;95.60
23685;DHT22;12020;51.384;6.908;2023-07-22T14:19:00;24.70;95.50
23685;DHT22;12020;51.384;6.908;2023-07-22T14:21:30;24.80;94.30
23685;DHT22;12020;51.384;6.908;2023-07-22T14:23:59;24.80;94.70
23685;DHT22;12020;51.384;6.908;2023-07-22T14:26:35;24.90;94.80
23685;DHT22;12020;51.384;6.908;2023-07-22T14:29:13;24.90;93.80
23685;DHT22;12020;51.384;6.908;2023-07-22T14:31:39;24.80;93.90
23685;DHT22;12020;51.384;6.908;2023-07-22T14:34:05;24.80;93.30
23685;DHT22;12020;51.384;6.908;2023-07-22T14:36:52;24.70;93.20
23685;DHT22;12020;51.384;6.908;2023-07-22T14:39:21;24.70;93.60
23685;DHT22;12020;51.384;6.908;2023-07-22T14:41:50;24.70;94.10
23685;DHT22;12020;51.384;6.908;2023-07-22T14:44:22;24.70;94.10
23685;DHT22;12020;51.384;6.908;2023-07-22T14:46:47;24.70;93.50
23685;DHT22;12020;51.384;6.908;2023-07-22T14:49:13;24.60;93.00
23685;DHT22;12020;51.384;6.908;2023-07-22T14:51:51;24.50;93.10
23685;DHT22;12020;51.384;6.908;2023-07-22T14:54:38;24.40;93.00
23685;DHT22;12020;51.384;6.908;2023-07-22T15:00:12;24.30;94.30
23685;DHT22;12020;51.384;6.908;2023-07-22T15:02:39;24.20;93.90
23685;DHT22;12020;51.384;6.908;2023-07-22T15:05:13;24.20;93.40
23685;DHT22;12020;51.384;6.908;2023-07-22T15:07:51;24.10;93.70
23685;DHT22;12020;51.384;6.908;2023-07-22T15:10:27;24.10;94.00
23685;DHT22;12020;51.384;6.908;2023-07-22T15:12:57;24.10;94.20
23685;DHT22;12020;51.384;6.908;2023-07-22T15:15:29;24.10;94.10
23685;DHT22;12020;51.384;6.908;2023-07-22T15:17:58;24.10;93.50
23685;DHT22;12020;51.384;6.908;2023-07-22T15:20:25;24.10;94.00
23685;DHT22;12020;51.384;6.908;2023-07-22T15:22:52;24.20;95.30
23685;DHT22;12020;51.384;6.908;2023-07-22T15:25:21;24.30;95.50
23685;DHT22;12020;51.384;6.908;2023-07-22T15:30:37;24.30;94.90
23685;DHT22;12020;51.384;6.908;2023-07-22T15:33:05;24.40;94.40
23685;DHT22;12020;51.384;6.908;2023-07-22T15:35:42;24.40;94.20
23685;DHT22;12020;51.384;6.908;2023-07-22T15:38:11;24.40;94.60
23685;DHT22;12020;51.384;6.908;2023-07-22T15:40:51;24.20;93.50
23685;DHT22;12020;51.384;6.908;2023-07-22T15:43:19;24.00;93.80
23685;DHT22;12020;51.384;6.908;2023-07-22T15:45:45;23.90;94.40
23685;DHT22;12020;51.384;6.908;2023-07-22T15:48:15;23.90;94.80